sensor_id;sensor_type;location;lat;lon;timestamp;P1;durP1;ratioP1;P2;durP2;ratioP2
12990;SDS011;6560;57.692;11.958;2024-01-10T00:00:12;6.07;;;5.47;;
12990;SDS011;6560;57.692;11.958;2024-01-10T00:02:37;6.13;;;5.53;;
12990;SDS011;6560;57.692;11.958;2024-01-10T00:05:03;7.67;;;6.67;;
12990;SDS011;6560;57.692;11.958;2024-01-10T00:07:29;7.60;;;5.67;;
12990;SDS011;6560;57.692;11.958;2024-01-10T00:09:54;6.77;;;5.00;;
12990;SDS011;6560;57.692;11.958;2024-01-10T00:12:20;6.27;;;4.93;;
12990;SDS011;6560;57.692;11.958;2024-01-10T00:14:46;6.00;;;4.63;;
12990;SDS011;6560;57.692;11.958;2024-01-10T00:17:12;10.07;;;6.07;;
12990;SDS011;6560;57.692;11.958;2024-01-10T00:19:37;5.87;;;5.03;;
12990;SDS011;6560;57.692;11.958;2024-01-10T00:22:03;7.50;;;5.33;;
12990;SDS011;6560;57.692;11.958;2024-01-10T00:24:28;6.73;;;5.70;;
12990;SDS011;6560;57.692;11.958;2024-01-10T00:26:54;7.37;;;6.43;;
12990;SDS011;6560;57.692;11.958;2024-01-10T00:29:20;8.33;;;5.87;;
12990;SDS011;6560;57.692;11.958;2024-01-10T00:31:45;9.53;;;5.43;;
12990;SDS011;6560;57.692;11.958;2024-01-10T00:34:11;6.73;;;5.50;;
12990;SDS011;6560;57.692;11.958;2024-01-10T00:36:36;7.93;;;5.87;;
12990;SDS011;6560;57.692;11.958;2024-01-10T00:39:02;7.20;;;5.73;;
12990;SDS011;6560;57.692;11.958;2024-01-10T00:41:27;6.70;;;5.40;;
12990;SDS011;6560;57.692;11.958;2024-01-10T00:43:53;8.20;;;5.40;;
12990;SDS011;6560;57.692;11.958;2024-01-10T00:46:18;8.00;;;5.97;;
12990;SDS011;6560;57.692;11.958;2024-01-10T00:48:43;6.93;;;5.33;;
12990;SDS011;6560;57.692;11.958;2024-01-10T00:51:09;6.83;;;5.80;;
12990;SDS011;6560;57.692;11.958;2024-01-10T00:53:35;10.77;;;5.97;;
12990;SDS011;6560;57.692;11.958;2024-01-10T00:56:01;7.47;;;5.70;;
12990;SDS011;6560;57.692;11.958;2024-01-10T00:58:26;7.63;;;6.10;;
12990;SDS011;6560;57.692;11.958;2024-01-10T01:00:52;8.13;;;6.40;;
12990;SDS011;6560;57.692;11.958;2024-01-10T01:03:17;9.13;;;6.30;;
12990;SDS011;6560;57.692;11.958;2024-01-10T01:05:42;8.03;;;5.53;;
12990;SDS011;6560;57.692;11.958;2024-01-10T01:10:57;8.40;;;6.70;;
12990;SDS011;6560;57.692;11.958;2024-01-10T01:13:22;7.60;;;6.03;;
12990;SDS011;6560;57.692;11.958;2024-01-10T01:15:47;9.27;;;6.77;;
12990;SDS011;6560;57.692;11.958;2024-01-10T01:18:13;9.97;;;6.33;;
12990;SDS011;6560;57.692;11.958;2024-01-10T01:20:39;8.40;;;6.10;;
12990;SDS011;6560;57.692;11.958;2024-01-10T01:23:05;8.63;;;6.10;;
12990;SDS011;6560;57.692;11.958;2024-01-10T01:25:30;7.10;;;6.17;;
12990;SDS011;6560;57.692;11.958;2024-01-10T01:27:56;12.43;;;7.23;;
12990;SDS011;6560;57.692;11.958;2024-01-10T01:30:21;9.80;;;6.20;;
12990;SDS011;6560;57.692;11.958;2024-01-10T01:32:47;9.20;;;5.63;;
12990;SDS011;6560;57.692;11.958;2024-01-10T01:35:12;9.40;;;6.97;;
12990;SDS011;6560;57.692;11.958;2024-01-10T01:37:38;10.33;;;7.50;;
12990;SDS011;6560;57.692;11.958;2024-01-10T01:40:03;7.30;;;6.10;;
12990;SDS011;6560;57.692;11.958;2024-01-10T01:42:30;8.20;;;5.37;;
12990;SDS011;6560;57.692;11.958;2024-01-10T01:44:55;7.93;;;5.80;;
12990;SDS011;6560;57.692;11.958;2024-01-10T01:47:20;7.27;;;5.67;;
12990;SDS011;6560;57.692;11.958;2024-01-10T01:49:46;9.17;;;6.37;;
12990;SDS011;6560;57.692;11.958;2024-01-10T01:52:12;8.60;;;6.60;;
12990;SDS011;6560;57.692;11.958;2024-01-10T01:54:38;10.40;;;7.03;;
12990;SDS011;6560;57.692;11.958;2024-01-10T01:57:03;9.83;;;7.10;;
12990;SDS011;6560;57.692;11.958;2024-01-10T01:59:29;7.60;;;6.73;;
12990;SDS011;6560;57.692;11.958;2024-01-10T02:01:55;11.57;;;7.50;;
12990;SDS011;6560;57.692;11.958;2024-01-10T02:04:21;8.87;;;7.57;;
12990;SDS011;6560;57.692;11.958;2024-01-10T02:06:48;10.03;;;6.83;;
12990;SDS011;6560;57.692;11.958;2024-01-10T02:09:13;10.23;;;7.37;;
12990;SDS011;6560;57.692;11.958;2024-01-10T02:11:39;11.60;;;7.17;;
12990;SDS011;6560;57.692;11.958;2024-01-10T02:14:05;10.73;;;6.87;;
12990;SDS011;6560;57.692;11.958;2024-01-10T02:16:30;9.83;;;7.33;;
12990;SDS011;6560;57.692;11.958;2024-01-10T02:18:56;11.57;;;7.20;;
12990;SDS011;6560;57.692;11.958;2024-01-10T02:21:21;11.33;;;8.30;;
12990;SDS011;6560;57.692;11.958;2024-01-10T02:23:47;12.07;;;8.23;;
12990;SDS011;6560;57.692;11.958;2024-01-10T02:26:13;12.07;;;7.97;;
12990;SDS011;6560;57.692;11.958;2024-01-10T02:28:39;13.53;;;8.70;;
12990;SDS011;6560;57.692;11.958;2024-01-10T02:31:05;13.27;;;9.10;;
12990;SDS011;6560;57.692;11.958;2024-01-10T02:33:32;12.30;;;8.27;;
12990;SDS011;6560;57.692;11.958;2024-01-10T02:35:57;12.37;;;8.47;;
12990;SDS011;6560;57.692;11.958;2024-01-10T02:38:23;13.97;;;9.57;;
12990;SDS011;6560;57.692;11.958;2024-01-10T02:40:49;10.93;;;7.20;;
12990;SDS011;6560;57.692;11.958;2024-01-10T02:43:14;10.57;;;7.17;;
12990;SDS011;6560;57.692;11.958;2024-01-10T02:45:40;10.70;;;8.83;;
12990;SDS011;6560;57.692;11.958;2024-01-10T02:48:06;10.63;;;8.07;;
12990;SDS011;6560;57.692;11.958;2024-01-10T02:50:32;11.17;;;8.47;;
12990;SDS011;6560;57.692;11.958;2024-01-10T02:52:57;14.30;;;7.93;;
12990;SDS011;6560;57.692;11.958;2024-01-10T02:55:23;10.73;;;7.20;;
12990;SDS011;6560;57.692;11.958;2024-01-10T02:57:48;17.13;;;8.70;;
12990;SDS011;6560;57.692;11.958;2024-01-10T03:00:13;13.20;;;8.13;;
12990;SDS011;6560;57.692;11.958;2024-01-10T03:02:39;12.63;;;7.90;;
12990;SDS011;6560;57.692;11.958;2024-01-10T03:05:04;12.37;;;8.13;;
12990;SDS011;6560;57.692;11.958;2024-01-10T03:07:30;13.10;;;8.17;;
12990;SDS011;6560;57.692;11.958;2024-01-10T03:09:55;11.53;;;7.93;;
12990;SDS011;6560;57.692;11.958;2024-01-10T03:12:24;11.10;;;7.27;;
12990;SDS011;6560;57.692;11.958;2024-01-10T03:14:49;13.87;;;8.80;;
12990;SDS011;6560;57.692;11.958;2024-01-10T03:17:15;11.73;;;8.43;;
12990;SDS011;6560;57.692;11.958;2024-01-10T03:19:40;13.73;;;7.53;;
12990;SDS011;6560;57.692;11.958;2024-01-10T03:22:09;17.27;;;9.73;;
12990;SDS011;6560;57.692;11.958;2024-01-10T03:24:35;16.27;;;8.83;;
12990;SDS011;6560;57.692;11.958;2024-01-10T03:27:01;43.10;;;10.87;;
12990;SDS011;6560;57.692;11.958;2024-01-10T03:29:27;20.37;;;10.07;;
12990;SDS011;6560;57.692;11.958;2024-01-10T03:31:52;17.70;;;9.87;;
12990;SDS011;6560;57.692;11.958;2024-01-10T03:34:18;40.90;;;13.50;;
12990;SDS011;6560;57.692;11.958;2024-01-10T03:36:43;135.13;;;22.73;;
12990;SDS011;6560;57.692;11.958;2024-01-10T03:39:09;74.37;;;13.43;;
12990;SDS011;6560;57.692;11.958;2024-01-10T03:41:35;29.47;;;10.83;;
12990;SDS011;6560;57.692;11.958;2024-01-10T03:44:00;19.43;;;9.87;;
12990;SDS011;6560;57.692;11.958;2024-01-10T03:46:26;28.83;;;9.80;;
12990;SDS011;6560;57.692;11.958;2024-01-10T03:48:52;33.17;;;10.97;;
12990;SDS011;6560;57.692;11.958;2024-01-10T03:51:19;19.10;;;9.03;;
12990;SDS011;6560;57.692;11.958;2024-01-10T03:53:45;30.27;;;10.07;;
12990;SDS011;6560;57.692;11.958;2024-01-10T03:56:11;23.37;;;10.17;;
12990;SDS011;6560;57.692;11.958;2024-01-10T03:58:37;17.27;;;9.13;;
12990;SDS011;6560;57.692;11.958;2024-01-10T04:01:08;18.97;;;9.60;;
12990;SDS011;6560;57.692;11.958;2024-01-10T04:03:34;21.20;;;9.93;;
12990;SDS011;6560;57.692;11.958;2024-01-10T04:06:01;30.63;;;10.37;;
12990;SDS011;6560;57.692;11.958;2024-01-10T04:08:27;17.40;;;8.70;;
12990;SDS011;6560;57.692;11.958;2024-01-10T04:10:52;18.33;;;9.17;;
12990;SDS011;6560;57.692;11.958;2024-01-10T04:13:18;14.63;;;8.60;;
12990;SDS011;6560;57.692;11.958;2024-01-10T04:15:43;17.37;;;8.03;;
12990;SDS011;6560;57.692;11.958;2024-01-10T04:18:09;15.67;;;7.47;;
12990;SDS011;6560;57.692;11.958;2024-01-10T04:20:34;14.53;;;7.70;;
12990;SDS011;6560;57.692;11.958;2024-01-10T04:22:59;12.87;;;6.10;;
12990;SDS011;6560;57.692;11.958;2024-01-10T04:25:25;13.20;;;6.07;;
12990;SDS011;6560;57.692;11.958;2024-01-10T04:27:50;14.20;;;7.17;;
12990;SDS011;6560;57.692;11.958;2024-01-10T04:30:16;12.63;;;6.13;;
12990;SDS011;6560;57.692;11.958;2024-01-10T04:32:41;14.60;;;7.57;;
12990;SDS011;6560;57.692;11.958;2024-01-10T04:35:07;32.60;;;8.37;;
12990;SDS011;6560;57.692;11.958;2024-01-10T04:37:32;15.87;;;7.50;;
12990;SDS011;6560;57.692;11.958;2024-01-10T04:39:58;24.97;;;8.23;;
12990;SDS011;6560;57.692;11.958;2024-01-10T04:42:23;12.53;;;6.80;;
12990;SDS011;6560;57.692;11.958;2024-01-10T04:44:49;29.27;;;7.67;;
12990;SDS011;6560;57.692;11.958;2024-01-10T04:47:15;20.90;;;6.93;;
12990;SDS011;6560;57.692;11.958;2024-01-10T04:49:40;41.27;;;7.80;;
12990;SDS011;6560;57.692;11.958;2024-01-10T04:52:06;49.47;;;8.37;;
12990;SDS011;6560;57.692;11.958;2024-01-10T04:54:31;29.67;;;6.33;;
12990;SDS011;6560;57.692;11.958;2024-01-10T04:56:56;41.50;;;7.60;;
12990;SDS011;6560;57.692;11.958;2024-01-10T04:59:22;43.70;;;7.00;;
12990;SDS011;6560;57.692;11.958;2024-01-10T05:01:47;39.03;;;7.97;;
12990;SDS011;6560;57.692;11.958;2024-01-10T05:04:13;32.83;;;7.60;;
12990;SDS011;6560;57.692;11.958;2024-01-10T05:06:38;52.50;;;7.57;;
12990;SDS011;6560;57.692;11.958;2024-01-10T05:09:04;35.47;;;5.70;;
12990;SDS011;6560;57.692;11.958;2024-01-10T05:11:31;73.77;;;10.97;;
12990;SDS011;6560;57.692;11.958;2024-01-10T05:13:56;107.10;;;11.30;;
12990;SDS011;6560;57.692;11.958;2024-01-10T05:16:22;63.93;;;8.70;;
12990;SDS011;6560;57.692;11.958;2024-01-10T05:18:47;68.07;;;9.60;;
12990;SDS011;6560;57.692;11.958;2024-01-10T05:21:13;69.53;;;9.73;;
12990;SDS011;6560;57.692;11.958;2024-01-10T05:23:38;82.33;;;8.87;;
12990;SDS011;6560;57.692;11.958;2024-01-10T05:26:05;55.60;;;7.77;;
12990;SDS011;6560;57.692;11.958;2024-01-10T05:28:31;97.13;;;11.80;;
12990;SDS011;6560;57.692;11.958;2024-01-10T05:30:56;50.53;;;9.07;;
12990;SDS011;6560;57.692;11.958;2024-01-10T05:33:22;94.00;;;12.33;;
12990;SDS011;6560;57.692;11.958;2024-01-10T05:35:48;90.60;;;10.90;;
12990;SDS011;6560;57.692;11.958;2024-01-10T05:38:14;148.10;;;16.50;;
12990;SDS011;6560;57.692;11.958;2024-01-10T05:40:39;70.77;;;11.63;;
12990;SDS011;6560;57.692;11.958;2024-01-10T05:43:05;140.77;;;17.40;;
12990;SDS011;6560;57.692;11.958;2024-01-10T05:45:32;132.00;;;13.60;;
12990;SDS011;6560;57.692;11.958;2024-01-10T05:47:58;89.53;;;10.13;;
12990;SDS011;6560;57.692;11.958;2024-01-10T05:50:24;90.00;;;12.60;;
12990;SDS011;6560;57.692;11.958;2024-01-10T05:52:50;127.53;;;12.47;;
12990;SDS011;6560;57.692;11.958;2024-01-10T05:55:15;69.97;;;9.93;;
12990;SDS011;6560;57.692;11.958;2024-01-10T05:57:41;79.87;;;11.70;;
12990;SDS011;6560;57.692;11.958;2024-01-10T06:00:06;94.00;;;10.13;;
12990;SDS011;6560;57.692;11.958;2024-01-10T06:02:36;132.57;;;15.03;;
12990;SDS011;6560;57.692;11.958;2024-01-10T06:05:05;96.40;;;11.63;;
12990;SDS011;6560;57.692;11.958;2024-01-10T06:07:31;84.17;;;11.57;;
12990;SDS011;6560;57.692;11.958;2024-01-10T06:09:57;87.30;;;11.80;;
12990;SDS011;6560;57.692;11.958;2024-01-10T06:12:22;85.70;;;13.17;;
12990;SDS011;6560;57.692;11.958;2024-01-10T06:14:48;94.20;;;12.27;;
12990;SDS011;6560;57.692;11.958;2024-01-10T06:17:13;76.43;;;10.87;;
12990;SDS011;6560;57.692;11.958;2024-01-10T06:19:39;122.93;;;17.67;;
12990;SDS011;6560;57.692;11.958;2024-01-10T06:22:07;70.00;;;11.90;;
12990;SDS011;6560;57.692;11.958;2024-01-10T06:24:33;97.93;;;15.90;;
12990;SDS011;6560;57.692;11.958;2024-01-10T06:26:58;107.17;;;14.57;;
12990;SDS011;6560;57.692;11.958;2024-01-10T06:29:24;84.93;;;12.53;;
12990;SDS011;6560;57.692;11.958;2024-01-10T06:31:49;66.90;;;11.43;;
12990;SDS011;6560;57.692;11.958;2024-01-10T06:34:15;121.77;;;16.03;;
12990;SDS011;6560;57.692;11.958;2024-01-10T06:36:40;113.90;;;18.10;;
12990;SDS011;6560;57.692;11.958;2024-01-10T06:39:05;119.13;;;15.60;;
12990;SDS011;6560;57.692;11.958;2024-01-10T06:41:31;151.83;;;20.00;;
12990;SDS011;6560;57.692;11.958;2024-01-10T06:43:57;118.27;;;14.87;;
12990;SDS011;6560;57.692;11.958;2024-01-10T06:46:22;141.20;;;19.30;;
12990;SDS011;6560;57.692;11.958;2024-01-10T06:48:47;105.07;;;15.00;;
12990;SDS011;6560;57.692;11.958;2024-01-10T06:51:13;93.27;;;13.50;;
12990;SDS011;6560;57.692;11.958;2024-01-10T06:53:39;130.43;;;16.97;;
12990;SDS011;6560;57.692;11.958;2024-01-10T06:56:05;84.73;;;13.70;;
12990;SDS011;6560;57.692;11.958;2024-01-10T06:58:31;149.33;;;21.30;;
12990;SDS011;6560;57.692;11.958;2024-01-10T07:00:57;97.53;;;13.50;;
12990;SDS011;6560;57.692;11.958;2024-01-10T07:03:25;130.73;;;17.87;;
12990;SDS011;6560;57.692;11.958;2024-01-10T07:05:51;123.77;;;15.47;;
12990;SDS011;6560;57.692;11.958;2024-01-10T07:08:16;106.43;;;16.77;;
12990;SDS011;6560;57.692;11.958;2024-01-10T07:10:42;172.00;;;22.70;;
12990;SDS011;6560;57.692;11.958;2024-01-10T07:13:07;127.10;;;17.93;;
12990;SDS011;6560;57.692;11.958;2024-01-10T07:15:33;114.83;;;15.20;;
12990;SDS011;6560;57.692;11.958;2024-01-10T07:17:58;136.83;;;17.70;;
12990;SDS011;6560;57.692;11.958;2024-01-10T07:20:24;104.37;;;15.50;;
12990;SDS011;6560;57.692;11.958;2024-01-10T07:22:50;97.23;;;15.37;;
12990;SDS011;6560;57.692;11.958;2024-01-10T07:25:16;95.40;;;15.00;;
12990;SDS011;6560;57.692;11.958;2024-01-10T07:27:42;92.80;;;15.87;;
12990;SDS011;6560;57.692;11.958;2024-01-10T07:30:09;73.77;;;15.77;;
12990;SDS011;6560;57.692;11.958;2024-01-10T07:32:41;165.30;;;21.30;;
12990;SDS011;6560;57.692;11.958;2024-01-10T07:35:08;155.60;;;18.70;;
12990;SDS011;6560;57.692;11.958;2024-01-10T07:37:40;104.47;;;18.33;;
12990;SDS011;6560;57.692;11.958;2024-01-10T07:40:07;107.60;;;17.00;;
12990;SDS011;6560;57.692;11.958;2024-01-10T07:42:34;154.47;;;20.80;;
12990;SDS011;6560;57.692;11.958;2024-01-10T07:45:00;79.63;;;14.93;;
12990;SDS011;6560;57.692;11.958;2024-01-10T07:47:30;80.43;;;15.17;;
12990;SDS011;6560;57.692;11.958;2024-01-10T07:50:05;74.93;;;16.00;;
12990;SDS011;6560;57.692;11.958;2024-01-10T07:52:32;139.23;;;20.50;;
12990;SDS011;6560;57.692;11.958;2024-01-10T07:54:58;166.37;;;24.07;;
12990;SDS011;6560;57.692;11.958;2024-01-10T07:57:23;75.17;;;15.03;;
12990;SDS011;6560;57.692;11.958;2024-01-10T07:59:49;59.97;;;16.20;;
12990;SDS011;6560;57.692;11.958;2024-01-10T08:02:14;98.80;;;18.20;;
12990;SDS011;6560;57.692;11.958;2024-01-10T08:04:40;110.00;;;17.93;;
12990;SDS011;6560;57.692;11.958;2024-01-10T08:07:06;112.90;;;18.07;;
12990;SDS011;6560;57.692;11.958;2024-01-10T08:09:31;97.70;;;15.57;;
12990;SDS011;6560;57.692;11.958;2024-01-10T08:11:56;170.63;;;27.77;;
12990;SDS011;6560;57.692;11.958;2024-01-10T08:14:22;105.80;;;19.00;;
12990;SDS011;6560;57.692;11.958;2024-01-10T08:16:47;81.63;;;14.87;;
12990;SDS011;6560;57.692;11.958;2024-01-10T08:19:13;173.30;;;21.57;;
12990;SDS011;6560;57.692;11.958;2024-01-10T08:21:38;117.73;;;18.07;;
12990;SDS011;6560;57.692;11.958;2024-01-10T08:24:04;128.77;;;17.27;;
12990;SDS011;6560;57.692;11.958;2024-01-10T08:26:30;115.83;;;20.13;;
12990;SDS011;6560;57.692;11.958;2024-01-10T08:28:56;143.40;;;17.53;;
12990;SDS011;6560;57.692;11.958;2024-01-10T08:31:21;161.17;;;19.97;;
12990;SDS011;6560;57.692;11.958;2024-01-10T08:33:47;106.50;;;18.00;;
12990;SDS011;6560;57.692;11.958;2024-01-10T08:36:13;108.80;;;17.30;;
12990;SDS011;6560;57.692;11.958;2024-01-10T08:38:39;99.90;;;17.93;;
12990;SDS011;6560;57.692;11.958;2024-01-10T08:41:05;119.67;;;18.17;;
12990;SDS011;6560;57.692;11.958;2024-01-10T08:43:32;87.33;;;16.80;;
12990;SDS011;6560;57.692;11.958;2024-01-10T08:45:58;67.03;;;14.33;;
12990;SDS011;6560;57.692;11.958;2024-01-10T08:48:23;81.50;;;16.87;;
12990;SDS011;6560;57.692;11.958;2024-01-10T08:50:50;102.83;;;16.97;;
12990;SDS011;6560;57.692;11.958;2024-01-10T08:53:15;64.63;;;15.30;;
12990;SDS011;6560;57.692;11.958;2024-01-10T08:55:41;95.87;;;16.60;;
12990;SDS011;6560;57.692;11.958;2024-01-10T08:58:06;83.23;;;14.37;;
12990;SDS011;6560;57.692;11.958;2024-01-10T09:00:32;73.07;;;12.30;;
12990;SDS011;6560;57.692;11.958;2024-01-10T09:02:59;61.43;;;13.60;;
12990;SDS011;6560;57.692;11.958;2024-01-10T09:05:24;107.73;;;18.07;;
12990;SDS011;6560;57.692;11.958;2024-01-10T09:07:50;101.17;;;16.73;;
12990;SDS011;6560;57.692;11.958;2024-01-10T09:10:15;102.13;;;16.37;;
12990;SDS011;6560;57.692;11.958;2024-01-10T09:12:41;129.43;;;18.20;;
12990;SDS011;6560;57.692;11.958;2024-01-10T09:15:10;70.37;;;12.70;;
12990;SDS011;6560;57.692;11.958;2024-01-10T09:17:38;78.33;;;16.80;;
12990;SDS011;6560;57.692;11.958;2024-01-10T09:20:05;45.13;;;14.13;;
12990;SDS011;6560;57.692;11.958;2024-01-10T09:22:30;61.80;;;14.67;;
12990;SDS011;6560;57.692;11.958;2024-01-10T09:24:56;75.73;;;16.07;;
12990;SDS011;6560;57.692;11.958;2024-01-10T09:27:27;87.83;;;14.13;;
12990;SDS011;6560;57.692;11.958;2024-01-10T09:29:53;64.93;;;12.77;;
12990;SDS011;6560;57.692;11.958;2024-01-10T09:32:19;77.10;;;14.80;;
12990;SDS011;6560;57.692;11.958;2024-01-10T09:34:44;68.97;;;14.83;;
12990;SDS011;6560;57.692;11.958;2024-01-10T09:37:10;48.83;;;13.27;;
12990;SDS011;6560;57.692;11.958;2024-01-10T09:39:36;50.57;;;14.00;;
12990;SDS011;6560;57.692;11.958;2024-01-10T09:42:01;51.10;;;12.97;;
12990;SDS011;6560;57.692;11.958;2024-01-10T09:44:26;39.63;;;13.67;;
12990;SDS011;6560;57.692;11.958;2024-01-10T09:46:53;50.43;;;12.80;;
12990;SDS011;6560;57.692;11.958;2024-01-10T09:49:19;58.30;;;13.20;;
12990;SDS011;6560;57.692;11.958;2024-01-10T09:51:53;66.23;;;14.30;;
12990;SDS011;6560;57.692;11.958;2024-01-10T09:54:22;40.63;;;12.20;;
12990;SDS011;6560;57.692;11.958;2024-01-10T09:56:50;30.97;;;11.40;;
12990;SDS011;6560;57.692;11.958;2024-01-10T09:59:16;32.23;;;10.97;;
12990;SDS011;6560;57.692;11.958;2024-01-10T10:01:42;43.30;;;13.50;;
12990;SDS011;6560;57.692;11.958;2024-01-10T10:04:08;61.43;;;15.23;;
12990;SDS011;6560;57.692;11.958;2024-01-10T10:06:36;51.03;;;14.53;;
12990;SDS011;6560;57.692;11.958;2024-01-10T10:09:02;30.27;;;11.60;;
12990;SDS011;6560;57.692;11.958;2024-01-10T10:11:27;32.60;;;10.83;;
12990;SDS011;6560;57.692;11.958;2024-01-10T10:13:52;41.93;;;11.93;;
12990;SDS011;6560;57.692;11.958;2024-01-10T10:16:22;30.63;;;11.53;;
12990;SDS011;6560;57.692;11.958;2024-01-10T10:18:52;33.80;;;11.67;;
12990;SDS011;6560;57.692;11.958;2024-01-10T10:21:24;23.43;;;10.57;;
12990;SDS011;6560;57.692;11.958;2024-01-10T10:23:58;27.77;;;10.80;;
12990;SDS011;6560;57.692;11.958;2024-01-10T10:26:26;22.13;;;8.90;;
12990;SDS011;6560;57.692;11.958;2024-01-10T10:28:52;19.23;;;9.27;;
12990;SDS011;6560;57.692;11.958;2024-01-10T10:31:18;18.67;;;8.37;;
12990;SDS011;6560;57.692;11.958;2024-01-10T10:33:44;25.47;;;9.53;;
12990;SDS011;6560;57.692;11.958;2024-01-10T10:36:10;14.87;;;9.37;;
12990;SDS011;6560;57.692;11.958;2024-01-10T10:38:38;17.07;;;8.87;;
12990;SDS011;6560;57.692;11.958;2024-01-10T10:41:05;15.53;;;8.37;;
12990;SDS011;6560;57.692;11.958;2024-01-10T10:43:35;15.83;;;8.90;;
12990;SDS011;6560;57.692;11.958;2024-01-10T10:46:11;16.83;;;8.77;;
12990;SDS011;6560;57.692;11.958;2024-01-10T10:48:40;16.17;;;8.03;;
12990;SDS011;6560;57.692;11.958;2024-01-10T10:51:08;13.93;;;8.93;;
12990;SDS011;6560;57.692;11.958;2024-01-10T10:53:36;18.83;;;9.97;;
12990;SDS011;6560;57.692;11.958;2024-01-10T10:56:03;18.23;;;9.50;;
12990;SDS011;6560;57.692;11.958;2024-01-10T10:58:49;16.70;;;8.80;;
12990;SDS011;6560;57.692;11.958;2024-01-10T11:01:15;16.27;;;9.00;;
12990;SDS011;6560;57.692;11.958;2024-01-10T11:03:42;15.43;;;8.63;;
12990;SDS011;6560;57.692;11.958;2024-01-10T11:06:09;17.80;;;8.03;;
12990;SDS011;6560;57.692;11.958;2024-01-10T11:08:36;13.40;;;8.20;;
12990;SDS011;6560;57.692;11.958;2024-01-10T11:11:06;13.87;;;8.13;;
12990;SDS011;6560;57.692;11.958;2024-01-10T11:19:14;18.37;;;9.80;;
12990;SDS011;6560;57.692;11.958;2024-01-10T11:25:03;19.97;;;9.90;;
12990;SDS011;6560;57.692;11.958;2024-01-10T11:27:28;18.20;;;9.83;;
12990;SDS011;6560;57.692;11.958;2024-01-10T11:29:55;20.87;;;12.27;;
12990;SDS011;6560;57.692;11.958;2024-01-10T11:32:22;19.00;;;11.80;;
12990;SDS011;6560;57.692;11.958;2024-01-10T11:37:19;38.43;;;13.97;;
12990;SDS011;6560;57.692;11.958;2024-01-10T11:39:44;21.03;;;11.87;;
12990;SDS011;6560;57.692;11.958;2024-01-10T11:42:10;25.33;;;12.00;;
12990;SDS011;6560;57.692;11.958;2024-01-10T11:44:49;23.50;;;12.27;;
12990;SDS011;6560;57.692;11.958;2024-01-10T11:47:15;33.60;;;13.33;;
12990;SDS011;6560;57.692;11.958;2024-01-10T11:49:53;28.33;;;12.53;;
12990;SDS011;6560;57.692;11.958;2024-01-10T11:52:33;26.37;;;13.43;;
12990;SDS011;6560;57.692;11.958;2024-01-10T11:54:59;25.67;;;12.50;;
12990;SDS011;6560;57.692;11.958;2024-01-10T11:57:26;40.73;;;13.67;;
12990;SDS011;6560;57.692;11.958;2024-01-10T11:59:54;30.37;;;13.07;;
12990;SDS011;6560;57.692;11.958;2024-01-10T12:02:21;29.43;;;12.23;;
12990;SDS011;6560;57.692;11.958;2024-01-10T12:04:48;29.43;;;12.37;;
12990;SDS011;6560;57.692;11.958;2024-01-10T12:07:15;26.83;;;13.40;;
12990;SDS011;6560;57.692;11.958;2024-01-10T12:09:41;21.00;;;11.60;;
12990;SDS011;6560;57.692;11.958;2024-01-10T12:12:09;20.30;;;11.83;;
12990;SDS011;6560;57.692;11.958;2024-01-10T12:14:37;24.03;;;10.93;;
12990;SDS011;6560;57.692;11.958;2024-01-10T12:17:05;23.70;;;12.87;;
12990;SDS011;6560;57.692;11.958;2024-01-10T12:19:33;32.43;;;12.77;;
12990;SDS011;6560;57.692;11.958;2024-01-10T12:21:59;23.53;;;11.57;;
12990;SDS011;6560;57.692;11.958;2024-01-10T12:24:26;24.90;;;12.47;;
12990;SDS011;6560;57.692;11.958;2024-01-10T12:26:54;27.20;;;11.97;;
12990;SDS011;6560;57.692;11.958;2024-01-10T12:29:21;36.30;;;13.57;;
12990;SDS011;6560;57.692;11.958;2024-01-10T12:31:47;31.87;;;13.73;;
12990;SDS011;6560;57.692;11.958;2024-01-10T12:34:13;30.37;;;13.00;;
12990;SDS011;6560;57.692;11.958;2024-01-10T12:36:39;18.53;;;10.83;;
12990;SDS011;6560;57.692;11.958;2024-01-10T12:39:05;18.40;;;11.27;;
12990;SDS011;6560;57.692;11.958;2024-01-10T12:41:32;18.07;;;9.70;;
12990;SDS011;6560;57.692;11.958;2024-01-10T12:43:58;21.07;;;10.30;;
12990;SDS011;6560;57.692;11.958;2024-01-10T12:46:27;20.27;;;10.67;;
12990;SDS011;6560;57.692;11.958;2024-01-10T12:48:59;22.63;;;9.00;;
12990;SDS011;6560;57.692;11.958;2024-01-10T12:51:32;86.77;;;14.13;;
12990;SDS011;6560;57.692;11.958;2024-01-10T12:53:59;18.87;;;10.10;;
12990;SDS011;6560;57.692;11.958;2024-01-10T12:56:26;21.10;;;10.23;;
12990;SDS011;6560;57.692;11.958;2024-01-10T12:58:52;50.63;;;11.93;;
12990;SDS011;6560;57.692;11.958;2024-01-10T13:01:19;30.13;;;10.57;;
12990;SDS011;6560;57.692;11.958;2024-01-10T13:03:45;20.40;;;9.50;;
12990;SDS011;6560;57.692;11.958;2024-01-10T13:06:11;30.73;;;11.10;;
12990;SDS011;6560;57.692;11.958;2024-01-10T13:08:37;27.90;;;10.70;;
12990;SDS011;6560;57.692;11.958;2024-01-10T13:11:02;25.13;;;8.87;;
12990;SDS011;6560;57.692;11.958;2024-01-10T13:13:37;35.13;;;10.73;;
12990;SDS011;6560;57.692;11.958;2024-01-10T13:16:03;54.23;;;11.53;;
12990;SDS011;6560;57.692;11.958;2024-01-10T13:18:30;22.27;;;10.67;;
12990;SDS011;6560;57.692;11.958;2024-01-10T13:20:55;46.30;;;11.33;;
12990;SDS011;6560;57.692;11.958;2024-01-10T13:23:21;40.90;;;11.20;;
12990;SDS011;6560;57.692;11.958;2024-01-10T13:25:52;33.10;;;11.60;;
12990;SDS011;6560;57.692;11.958;2024-01-10T13:28:18;21.87;;;11.00;;
12990;SDS011;6560;57.692;11.958;2024-01-10T13:30:44;24.40;;;9.77;;
12990;SDS011;6560;57.692;11.958;2024-01-10T13:33:09;30.77;;;10.73;;
12990;SDS011;6560;57.692;11.958;2024-01-10T13:35:38;23.43;;;9.57;;
12990;SDS011;6560;57.692;11.958;2024-01-10T13:38:03;22.00;;;10.50;;
12990;SDS011;6560;57.692;11.958;2024-01-10T13:40:30;16.57;;;9.67;;
12990;SDS011;6560;57.692;11.958;2024-01-10T13:42:56;15.23;;;9.73;;
12990;SDS011;6560;57.692;11.958;2024-01-10T13:45:22;35.23;;;10.40;;
12990;SDS011;6560;57.692;11.958;2024-01-10T13:47:47;35.60;;;11.33;;
12990;SDS011;6560;57.692;11.958;2024-01-10T13:50:14;59.50;;;14.30;;
12990;SDS011;6560;57.692;11.958;2024-01-10T13:52:40;70.73;;;14.27;;
12990;SDS011;6560;57.692;11.958;2024-01-10T13:55:05;26.67;;;11.83;;
12990;SDS011;6560;57.692;11.958;2024-01-10T13:57:31;24.47;;;11.03;;
12990;SDS011;6560;57.692;11.958;2024-01-10T13:59:57;25.87;;;11.17;;
12990;SDS011;6560;57.692;11.958;2024-01-10T14:02:23;34.17;;;11.67;;
12990;SDS011;6560;57.692;11.958;2024-01-10T14:04:49;26.03;;;11.67;;
12990;SDS011;6560;57.692;11.958;2024-01-10T14:07:15;42.77;;;12.87;;
12990;SDS011;6560;57.692;11.958;2024-01-10T14:09:41;29.27;;;13.27;;
12990;SDS011;6560;57.692;11.958;2024-01-10T14:12:06;21.93;;;10.70;;
12990;SDS011;6560;57.692;11.958;2024-01-10T14:14:31;17.27;;;9.63;;
12990;SDS011;6560;57.692;11.958;2024-01-10T14:16:57;19.97;;;10.33;;
12990;SDS011;6560;57.692;11.958;2024-01-10T14:19:22;16.37;;;9.03;;
12990;SDS011;6560;57.692;11.958;2024-01-10T14:21:49;12.50;;;7.80;;
12990;SDS011;6560;57.692;11.958;2024-01-10T14:24:15;14.80;;;8.13;;
12990;SDS011;6560;57.692;11.958;2024-01-10T14:26:41;14.90;;;7.43;;
12990;SDS011;6560;57.692;11.958;2024-01-10T14:29:06;12.93;;;7.60;;
12990;SDS011;6560;57.692;11.958;2024-01-10T14:31:32;12.50;;;8.30;;
12990;SDS011;6560;57.692;11.958;2024-01-10T14:33:57;16.00;;;7.67;;
12990;SDS011;6560;57.692;11.958;2024-01-10T14:36:23;15.70;;;8.50;;